createdAt,value
2019-05-30T00:00:57.934Z,9.70
2019-05-30T00:03:24.890Z,9.73
2019-05-30T00:05:51.518Z,9.77
2019-05-30T00:08:18.257Z,9.71
2019-05-30T00:10:44.895Z,9.65
2019-05-30T00:13:11.562Z,9.64
2019-05-30T00:15:38.430Z,9.64
2019-05-30T00:18:05.101Z,9.82
2019-05-30T00:20:31.683Z,9.77
2019-05-30T00:22:58.838Z,9.73
2019-05-30T00:25:25.811Z,9.43
2019-05-30T00:27:52.531Z,9.55
2019-05-30T00:30:24.446Z,9.63
2019-05-30T00:32:48.173Z,9.69
2019-05-30T00:35:14.948Z,9.64
2019-05-30T00:37:41.580Z,9.50
2019-05-30T00:40:08.745Z,9.66
2019-05-30T00:42:35.384Z,9.58
2019-05-30T00:45:09.286Z,9.63
2019-05-30T00:47:31.846Z,9.66
2019-05-30T00:49:58.562Z,9.67
2019-05-30T00:52:25.190Z,9.77
2019-05-30T00:54:52.085Z,9.67
2019-05-30T00:57:19.046Z,9.40
2019-05-30T00:59:45.766Z,9.80
2019-05-30T01:02:12.458Z,9.76
2019-05-30T01:04:39.778Z,9.70
2019-05-30T01:07:07.207Z,9.63
2019-05-30T01:09:33.938Z,9.70
2019-05-30T01:12:01.066Z,9.74
2019-05-30T01:14:28.655Z,9.59
2019-05-30T01:16:55.294Z,9.57
2019-05-30T01:19:22.100Z,9.69
2019-05-30T01:21:50.352Z,9.67
2019-05-30T01:24:17.015Z,9.60
2019-05-30T01:26:43.596Z,9.50
2019-05-30T01:29:10.416Z,9.76
2019-05-30T01:31:36.993Z,9.66
2019-05-30T01:34:03.774Z,9.64
2019-05-30T01:36:30.412Z,9.78
2019-05-30T01:38:57.702Z,9.65
2019-05-30T01:41:24.383Z,9.64
2019-05-30T01:43:51.745Z,9.64
2019-05-30T01:46:18.434Z,9.44
2019-05-30T01:48:45.055Z,9.63
2019-05-30T01:51:12.243Z,9.59
2019-05-30T01:53:38.844Z,9.80
2019-05-30T01:56:06.805Z,9.68
2019-05-30T01:58:33.469Z,9.76
2019-05-30T02:01:14.384Z,9.79
2019-05-30T02:03:28.682Z,9.50
2019-05-30T02:05:56.312Z,9.57
2019-05-30T02:08:26.461Z,9.61
2019-05-30T02:10:53.073Z,9.56
2019-05-30T02:13:19.675Z,9.68
2019-05-30T02:15:46.454Z,9.67
2019-05-30T02:18:13.079Z,9.68
2019-05-30T02:20:39.745Z,9.56
2019-05-30T02:23:08.042Z,9.83
2019-05-30T02:25:35.030Z,9.76
2019-05-30T02:28:02.070Z,9.83
2019-05-30T02:30:29.250Z,9.71
2019-05-30T02:32:56.315Z,9.87
2019-05-30T02:35:22.934Z,9.66
2019-05-30T02:37:49.625Z,9.74
2019-05-30T02:40:16.784Z,9.74
2019-05-30T02:42:43.524Z,9.73
2019-05-30T02:45:12.533Z,9.65
2019-05-30T02:47:39.666Z,9.65
2019-05-30T02:50:10.977Z,9.55
2019-05-30T02:52:37.872Z,9.74
2019-05-30T02:55:06.639Z,9.76
2019-05-30T02:57:33.488Z,9.67
2019-05-30T03:00:01.961Z,9.61
2019-05-30T03:02:29.975Z,9.87
2019-05-30T03:04:56.696Z,9.89
2019-05-30T03:07:23.421Z,10.01
2019-05-30T03:09:50.623Z,10.12
2019-05-30T03:12:17.400Z,10.33
2019-05-30T03:14:45.207Z,10.43
2019-05-30T03:17:14.356Z,10.34
2019-05-30T03:19:40.628Z,10.48
2019-05-30T03:22:08.874Z,10.49
2019-05-30T03:24:35.918Z,10.69
2019-05-30T03:27:04.798Z,10.62
2019-05-30T03:29:31.321Z,10.65
2019-05-30T03:32:28.211Z,10.95
2019-05-30T03:34:29.070Z,10.97
2019-05-30T03:36:55.741Z,10.87
2019-05-30T03:39:22.681Z,10.96
2019-05-30T03:41:49.333Z,10.90
2019-05-30T03:44:16.084Z,11.10
2019-05-30T03:46:47.329Z,10.96
2019-05-30T03:49:17.018Z,10.96
2019-05-30T03:51:46.008Z,11.06
2019-05-30T03:54:14.153Z,11.17
2019-05-30T03:56:44.911Z,11.09
2019-05-30T03:59:25.864Z,11.14
2019-05-30T04:02:01.447Z,11.22
2019-05-30T04:04:31.306Z,11.17
2019-05-30T04:07:01.742Z,11.18
2019-05-30T04:09:30.298Z,11.17
2019-05-30T04:12:12.720Z,11.43
2019-05-30T04:14:41.426Z,11.61
2019-05-30T04:17:10.162Z,11.53
2019-05-30T04:19:36.570Z,11.48
2019-05-30T04:22:03.332Z,11.50
2019-05-30T04:24:29.963Z,11.44
2019-05-30T04:26:56.597Z,11.63
2019-05-30T04:29:23.379Z,11.90
2019-05-30T04:31:50.048Z,11.88
2019-05-30T04:34:17.676Z,11.68
2019-05-30T04:36:45.329Z,11.82
2019-05-30T04:39:13.001Z,11.93
2019-05-30T04:41:40.949Z,11.83
2019-05-30T04:44:09.833Z,12.02
2019-05-30T04:46:36.637Z,12.16
2019-05-30T04:49:03.698Z,12.19
2019-05-30T04:51:30.324Z,11.86
2019-05-30T04:53:57.241Z,12.08
2019-05-30T04:56:23.954Z,12.04
2019-05-30T04:58:50.530Z,12.20
2019-05-30T05:01:18.212Z,12.47
2019-05-30T05:03:46.930Z,12.40
2019-05-30T05:06:14.323Z,11.99
2019-05-30T05:08:42.216Z,12.16
2019-05-30T05:11:12.363Z,11.94
2019-05-30T05:13:37.532Z,12.10
2019-05-30T05:16:21.437Z,12.18
2019-05-30T05:18:32.857Z,12.45
2019-05-30T05:20:59.572Z,12.94
2019-05-30T05:23:26.232Z,12.63
2019-05-30T05:26:00.747Z,12.79
2019-05-30T05:28:22.458Z,12.88
2019-05-30T05:30:49.194Z,13.09
2019-05-30T05:33:16.680Z,13.29
2019-05-30T05:35:43.507Z,13.24
2019-05-30T05:38:10.085Z,13.16
2019-05-30T05:40:36.961Z,12.95
2019-05-30T05:43:03.765Z,13.20
2019-05-30T05:45:30.373Z,13.42
2019-05-30T05:47:57.639Z,13.36
2019-05-30T05:50:24.674Z,13.50
2019-05-30T05:52:51.570Z,13.89
2019-05-30T05:55:18.763Z,14.09
2019-05-30T05:57:45.693Z,13.80
2019-05-30T06:00:12.754Z,13.91
2019-05-30T06:02:39.902Z,14.16
2019-05-30T06:05:09.496Z,13.93
2019-05-30T06:07:36.545Z,14.68
2019-05-30T06:10:03.966Z,14.65
2019-05-30T06:12:31.305Z,14.71
2019-05-30T06:14:58.303Z,14.61
2019-05-30T06:17:25.185Z,14.43
2019-05-30T06:19:51.778Z,14.35
2019-05-30T06:22:19.291Z,14.27
2019-05-30T06:24:45.978Z,14.47
2019-05-30T06:27:12.881Z,14.40
2019-05-30T06:29:39.796Z,14.40
2019-05-30T06:32:08.133Z,14.55
2019-05-30T06:34:39.341Z,14.90
2019-05-30T06:37:03.600Z,15.16
2019-05-30T06:39:30.313Z,15.17
2019-05-30T06:41:56.930Z,15.49
2019-05-30T06:44:23.973Z,15.79
2019-05-30T06:46:50.895Z,15.57
2019-05-30T06:49:17.515Z,15.36
2019-05-30T06:51:44.197Z,15.47
2019-05-30T06:54:10.866Z,15.37
2019-05-30T06:56:37.869Z,15.16
2019-05-30T06:59:04.586Z,15.00
2019-05-30T07:01:32.162Z,14.84
2019-05-30T07:03:59.155Z,15.30
2019-05-30T07:06:27.306Z,15.30
2019-05-30T07:08:54.746Z,15.28
2019-05-30T07:11:22.646Z,15.47
2019-05-30T07:13:49.384Z,15.52
2019-05-30T07:16:15.990Z,16.07
2019-05-30T07:18:42.565Z,15.98
2019-05-30T07:21:09.177Z,15.94
2019-05-30T07:23:39.056Z,16.41
2019-05-30T07:26:04.635Z,16.35
2019-05-30T07:28:32.008Z,16.77
2019-05-30T07:30:58.708Z,17.08
2019-05-30T07:33:26.001Z,17.08
2019-05-30T07:35:52.923Z,17.68
2019-05-30T07:38:19.549Z,16.97
2019-05-30T07:40:46.148Z,16.36
2019-05-30T07:43:12.814Z,16.20
2019-05-30T07:45:39.441Z,16.25
2019-05-30T07:48:06.153Z,16.48
2019-05-30T07:50:32.841Z,16.24
2019-05-30T07:53:00.483Z,16.65
2019-05-30T07:55:27.105Z,17.03
2019-05-30T07:58:01.937Z,17.07
2019-05-30T08:00:29.394Z,16.94
2019-05-30T08:02:56.044Z,17.01
2019-05-30T08:05:24.596Z,17.09
2019-05-30T08:07:51.445Z,17.66
2019-05-30T08:10:18.322Z,18.10
2019-05-30T08:12:44.950Z,18.15
2019-05-30T08:15:14.863Z,17.84
2019-05-30T08:17:44.297Z,16.97
2019-05-30T08:20:10.490Z,16.80
2019-05-30T08:22:38.333Z,16.82
2019-05-30T08:25:05.852Z,16.95
2019-05-30T08:27:32.459Z,17.09
2019-05-30T08:29:59.128Z,16.72
2019-05-30T08:32:25.843Z,16.74
2019-05-30T08:34:52.457Z,16.83
2019-05-30T08:37:19.115Z,17.15
2019-05-30T08:39:45.688Z,16.72
2019-05-30T08:42:12.262Z,16.08
2019-05-30T08:44:40.047Z,15.85
2019-05-30T08:47:06.963Z,15.66
2019-05-30T08:49:34.035Z,15.85
2019-05-30T08:52:04.909Z,15.56
2019-05-30T08:54:55.386Z,15.33
2019-05-30T08:57:22.586Z,15.23
2019-05-30T08:59:49.338Z,15.47
2019-05-30T09:02:15.967Z,14.98
2019-05-30T09:04:42.560Z,15.06
2019-05-30T09:07:09.179Z,15.14
2019-05-30T09:09:36.129Z,15.01
2019-05-30T09:12:03.181Z,14.86
2019-05-30T09:14:29.807Z,14.61
2019-05-30T09:16:57.069Z,14.84
2019-05-30T09:19:23.983Z,14.89
2019-05-30T09:21:50.704Z,14.35
2019-05-30T09:24:17.346Z,14.39
2019-05-30T09:26:47.167Z,14.76
2019-05-30T09:29:12.703Z,14.60
2019-05-30T09:31:40.827Z,14.57
2019-05-30T09:34:07.801Z,14.71
2019-05-30T09:36:34.706Z,14.84
2019-05-30T09:39:01.459Z,14.82
2019-05-30T09:41:29.867Z,15.09
2019-05-30T09:43:56.528Z,14.79
2019-05-30T09:46:23.360Z,15.69
2019-05-30T09:48:51.708Z,15.54
2019-05-30T09:51:18.578Z,16.07
2019-05-30T09:53:45.977Z,16.85
2019-05-30T09:56:14.952Z,16.32
2019-05-30T09:58:46.020Z,16.22
2019-05-30T10:01:17.990Z,15.85
2019-05-30T10:03:55.593Z,15.73
2019-05-30T10:06:29.449Z,15.89
2019-05-30T10:08:51.241Z,15.63
2019-05-30T10:11:18.358Z,15.34
2019-05-30T10:13:46.384Z,15.46
2019-05-30T10:16:13.732Z,15.52
2019-05-30T10:18:40.318Z,15.47
2019-05-30T10:21:07.011Z,15.50
2019-05-30T10:23:33.644Z,15.30
2019-05-30T10:26:00.198Z,15.33
2019-05-30T10:28:26.879Z,15.09
2019-05-30T10:30:57.088Z,15.20
2019-05-30T10:33:24.040Z,15.36
2019-05-30T10:35:53.322Z,15.24
2019-05-30T10:38:20.350Z,15.43
2019-05-30T10:40:48.832Z,15.63
2019-05-30T10:43:16.464Z,15.56
2019-05-30T10:45:43.049Z,15.70
2019-05-30T10:48:20.757Z,15.99
2019-05-30T10:50:48.514Z,16.24
2019-05-30T10:53:16.362Z,16.06
2019-05-30T10:55:43.309Z,16.15
2019-05-30T10:58:09.942Z,15.97
2019-05-30T11:00:45.655Z,16.27
2019-05-30T11:03:14.085Z,16.65
2019-05-30T11:05:44.128Z,16.75
2019-05-30T11:08:14.784Z,17.12
2019-05-30T11:10:43.985Z,16.84
2019-05-30T11:13:12.674Z,17.23
2019-05-30T11:15:39.517Z,17.31
2019-05-30T11:18:07.314Z,17.60
2019-05-30T11:20:34.117Z,17.53
2019-05-30T11:23:00.686Z,17.85
2019-05-30T11:25:27.407Z,18.11
2019-05-30T11:27:54.850Z,17.93
2019-05-30T11:30:21.842Z,18.45
2019-05-30T11:32:49.041Z,18.25
2019-05-30T11:35:15.887Z,18.06
2019-05-30T11:37:42.470Z,18.83
2019-05-30T11:40:09.166Z,18.31
2019-05-30T11:42:35.764Z,18.45
2019-05-30T11:45:02.970Z,17.97
2019-05-30T11:47:29.744Z,18.24
2019-05-30T11:49:56.360Z,18.69
2019-05-30T11:52:25.821Z,18.61
2019-05-30T11:54:52.418Z,19.03
2019-05-30T11:57:19.033Z,18.55
2019-05-30T11:59:45.924Z,18.34
2019-05-30T12:02:12.526Z,18.22
2019-05-30T12:04:39.316Z,17.73
2019-05-30T12:07:05.995Z,18.08
2019-05-30T12:09:32.659Z,18.06
2019-05-30T12:11:59.546Z,17.97
2019-05-30T12:14:26.133Z,18.22
2019-05-30T12:16:53.206Z,18.15
2019-05-30T12:19:20.034Z,17.99
2019-05-30T12:21:46.631Z,17.67
2019-05-30T12:24:13.512Z,17.72
2019-05-30T12:26:40.309Z,17.53
2019-05-30T12:29:08.830Z,17.73
2019-05-30T12:31:35.491Z,17.89
2019-05-30T12:34:02.727Z,17.76
2019-05-30T12:36:29.543Z,17.60
2019-05-30T12:38:56.383Z,17.56
2019-05-30T12:41:23.064Z,18.03
2019-05-30T12:43:49.669Z,17.55
2019-05-30T12:46:16.329Z,17.32
2019-05-30T12:48:42.970Z,17.46
2019-05-30T12:51:10.619Z,17.38
2019-05-30T12:53:37.214Z,17.63
2019-05-30T12:56:04.094Z,17.54
2019-05-30T12:58:30.862Z,17.49
2019-05-30T13:00:58.674Z,17.60
2019-05-30T13:03:25.474Z,17.70
2019-05-30T13:05:52.081Z,17.94
2019-05-30T13:08:21.978Z,18.15
2019-05-30T13:10:47.311Z,17.95
2019-05-30T13:13:14.241Z,18.20
2019-05-30T13:15:40.898Z,17.68
2019-05-30T13:18:08.631Z,17.65
2019-05-30T13:20:35.524Z,17.61
2019-05-30T13:23:03.116Z,17.70
2019-05-30T13:25:29.847Z,17.71
2019-05-30T13:27:57.665Z,17.54
2019-05-30T13:30:25.370Z,17.96
2019-05-30T13:32:52.065Z,18.05
2019-05-30T13:35:18.894Z,18.13
2019-05-30T13:37:45.526Z,18.17
2019-05-30T13:40:24.325Z,18.01
2019-05-30T13:42:41.164Z,17.53
2019-05-30T13:45:08.460Z,18.00
2019-05-30T13:47:35.717Z,17.62
2019-05-30T13:50:03.116Z,18.22
2019-05-30T13:52:30.301Z,18.35
2019-05-30T13:54:57.147Z,18.35
2019-05-30T13:57:24.373Z,18.46
2019-05-30T13:59:51.157Z,18.00
2019-05-30T14:02:17.811Z,18.08
2019-05-30T14:04:44.583Z,18.38
2019-05-30T14:07:11.183Z,18.41
2019-05-30T14:09:39.441Z,18.55
2019-05-30T14:12:06.758Z,18.60
2019-05-30T14:14:33.588Z,18.73
2019-05-30T14:17:00.876Z,18.44
2019-05-30T14:19:27.781Z,18.42
2019-05-30T14:21:54.541Z,18.38
2019-05-30T14:24:22.465Z,18.42
2019-05-30T14:26:50.321Z,18.61
2019-05-30T14:29:16.985Z,19.36
2019-05-30T14:31:43.851Z,19.14
2019-05-30T14:34:10.495Z,19.09
2019-05-30T14:36:37.153Z,19.03
2019-05-30T14:39:06.868Z,18.67
2019-05-30T14:41:36.557Z,18.43
2019-05-30T14:44:03.362Z,18.58
2019-05-30T14:46:30.058Z,18.86
2019-05-30T14:48:56.998Z,18.90
2019-05-30T14:51:23.634Z,19.11
2019-05-30T14:53:50.434Z,19.41
2019-05-30T14:56:17.564Z,19.19
2019-05-30T14:58:44.562Z,19.20
2019-05-30T15:01:11.275Z,19.48
2019-05-30T15:03:37.815Z,19.12
2019-05-30T15:06:08.507Z,19.03
2019-05-30T15:08:34.235Z,19.24
2019-05-30T15:11:00.848Z,19.71
2019-05-30T15:13:27.485Z,19.55
2019-05-30T15:15:57.161Z,19.33
2019-05-30T15:18:23.960Z,18.91
2019-05-30T15:20:50.547Z,19.11
2019-05-30T15:23:17.225Z,19.52
2019-05-30T15:25:43.998Z,19.42
2019-05-30T15:28:12.095Z,19.56
2019-05-30T15:30:38.988Z,19.25
2019-05-30T15:33:06.303Z,19.18
2019-05-30T15:35:33.311Z,19.85
2019-05-30T15:37:59.911Z,19.83
2019-05-30T15:40:26.850Z,19.66
2019-05-30T15:42:53.464Z,19.80
2019-05-30T15:45:21.028Z,19.92
2019-05-30T15:47:47.659Z,19.85
2019-05-30T15:50:15.353Z,20.15
2019-05-30T15:52:43.476Z,20.45
2019-05-30T15:55:11.347Z,20.57
2019-05-30T15:57:38.331Z,19.95
2019-05-30T16:00:06.759Z,19.48
2019-05-30T16:02:33.428Z,19.89
2019-05-30T16:05:00.009Z,19.64
2019-05-30T16:07:26.917Z,19.55
2019-05-30T16:09:53.895Z,19.43
2019-05-30T16:12:21.376Z,19.79
2019-05-30T16:14:49.300Z,20.16
2019-05-30T16:17:16.240Z,20.39
2019-05-30T16:19:44.091Z,20.13
2019-05-30T16:22:12.244Z,19.84
2019-05-30T16:24:39.047Z,19.38
2019-05-30T16:27:05.640Z,19.36
2019-05-30T16:29:32.554Z,19.58
2019-05-30T16:31:59.118Z,19.66
2019-05-30T16:34:26.423Z,19.93
2019-05-30T16:36:52.990Z,20.07
2019-05-30T16:39:20.400Z,20.10
2019-05-30T16:41:47.205Z,20.31
2019-05-30T16:44:14.185Z,19.90
2019-05-30T16:46:40.929Z,20.08
2019-05-30T16:49:07.833Z,19.80
2019-05-30T16:51:34.428Z,20.00
2019-05-30T16:54:01.111Z,19.47
2019-05-30T16:56:27.990Z,19.23
2019-05-30T16:58:54.668Z,19.28
2019-05-30T17:01:22.023Z,19.32
2019-05-30T17:03:50.003Z,19.52
2019-05-30T17:06:17.939Z,19.59
2019-05-30T17:08:44.836Z,19.17
2019-05-30T17:11:11.431Z,19.07
2019-05-30T17:13:38.103Z,18.99
2019-05-30T17:16:04.858Z,19.14
2019-05-30T17:18:32.432Z,18.94
2019-05-30T17:20:59.071Z,19.02
2019-05-30T17:23:26.748Z,19.02
2019-05-30T17:25:53.747Z,19.00
2019-05-30T17:28:20.437Z,18.87
2019-05-30T17:30:47.119Z,18.84
2019-05-30T17:33:13.707Z,18.49
2019-05-30T17:35:40.679Z,18.34
2019-05-30T17:38:07.623Z,18.47
2019-05-30T17:40:43.673Z,18.61
2019-05-30T17:43:02.883Z,18.48
2019-05-30T17:45:29.602Z,18.72
2019-05-30T17:48:07.514Z,18.37
2019-05-30T17:50:25.816Z,18.42
2019-05-30T17:52:52.483Z,18.37
2019-05-30T17:55:19.755Z,18.41
2019-05-30T17:57:46.476Z,18.19
2019-05-30T18:00:15.152Z,17.96
2019-05-30T18:02:42.909Z,18.13
2019-05-30T18:05:11.601Z,18.14
2019-05-30T18:07:38.277Z,18.11
2019-05-30T18:10:05.426Z,18.09
2019-05-30T18:12:32.110Z,17.92
2019-05-30T18:15:00.294Z,17.89
2019-05-30T18:17:27.248Z,17.71
2019-05-30T18:19:53.999Z,18.11
2019-05-30T18:22:21.429Z,17.79
2019-05-30T18:24:48.395Z,17.50
2019-05-30T18:27:15.027Z,17.05
2019-05-30T18:29:41.944Z,17.31
2019-05-30T18:32:08.598Z,17.32
2019-05-30T18:34:35.228Z,17.28
2019-05-30T18:37:01.920Z,17.26
2019-05-30T18:39:28.691Z,17.22
2019-05-30T18:41:57.871Z,17.26
2019-05-30T18:44:25.749Z,17.28
2019-05-30T18:46:53.468Z,17.35
2019-05-30T18:49:20.057Z,17.32
2019-05-30T18:51:46.749Z,17.41
2019-05-30T18:54:13.567Z,17.48
2019-05-30T18:56:40.265Z,17.39
2019-05-30T18:59:06.931Z,17.42
2019-05-30T19:01:33.870Z,17.19
2019-05-30T19:04:00.809Z,17.17
2019-05-30T19:06:29.980Z,17.07
2019-05-30T19:08:56.658Z,17.10
2019-05-30T19:11:29.665Z,16.83
2019-05-30T19:13:53.125Z,16.94
2019-05-30T19:16:20.029Z,16.86
2019-05-30T19:18:46.667Z,17.03
2019-05-30T19:21:13.331Z,17.16
2019-05-30T19:23:39.964Z,17.03
2019-05-30T19:26:06.526Z,16.87
2019-05-30T19:28:34.562Z,16.96
2019-05-30T19:31:01.278Z,17.06
2019-05-30T19:33:28.835Z,17.07
2019-05-30T19:35:55.912Z,17.02
2019-05-30T19:38:22.547Z,16.81
2019-05-30T19:40:50.412Z,16.81
2019-05-30T19:43:17.058Z,16.85
2019-05-30T19:45:43.816Z,16.85
2019-05-30T19:48:10.511Z,16.72
2019-05-30T19:50:37.399Z,16.76
2019-05-30T19:53:04.119Z,16.81
2019-05-30T19:55:31.097Z,16.90
2019-05-30T19:57:57.798Z,16.93
2019-05-30T20:00:24.494Z,16.89
2019-05-30T20:02:51.150Z,16.99
2019-05-30T20:05:18.095Z,16.95
2019-05-30T20:07:45.004Z,16.95
2019-05-30T20:10:12.805Z,16.98
2019-05-30T20:12:39.492Z,17.10
2019-05-30T20:15:07.697Z,17.01
2019-05-30T20:17:35.448Z,16.92
2019-05-30T20:20:02.854Z,16.72
2019-05-30T20:22:30.072Z,16.80
2019-05-30T20:24:56.737Z,16.94
2019-05-30T20:27:23.659Z,16.77
2019-05-30T20:29:50.448Z,16.61
2019-05-30T20:32:17.067Z,17.00
2019-05-30T20:34:43.703Z,17.07
2019-05-30T20:37:10.346Z,16.89
2019-05-30T20:39:36.990Z,16.77
2019-05-30T20:42:18.204Z,16.65
2019-05-30T20:44:33.010Z,16.53
2019-05-30T20:46:59.673Z,16.37
2019-05-30T20:49:26.389Z,16.18
2019-05-30T20:51:53.322Z,16.12
2019-05-30T20:54:21.105Z,16.06
2019-05-30T20:56:50.156Z,16.00
2019-05-30T20:59:16.222Z,15.95
2019-05-30T21:01:43.805Z,15.93
2019-05-30T21:04:10.540Z,15.79
2019-05-30T21:06:37.355Z,15.81
2019-05-30T21:09:06.179Z,15.85
2019-05-30T21:11:36.104Z,15.70
2019-05-30T21:14:03.621Z,15.77
2019-05-30T21:16:33.631Z,15.76
2019-05-30T21:19:05.520Z,15.62
2019-05-30T21:21:32.248Z,15.52
2019-05-30T21:23:58.866Z,15.62
2019-05-30T21:26:25.473Z,15.59
2019-05-30T21:28:52.349Z,15.60
2019-05-30T21:31:19.598Z,15.58
2019-05-30T21:33:48.043Z,15.45
2019-05-30T21:36:15.342Z,15.52
2019-05-30T21:38:42.015Z,15.49
2019-05-30T21:41:08.589Z,15.47
2019-05-30T21:43:35.218Z,15.48
2019-05-30T21:46:01.783Z,15.60
2019-05-30T21:48:28.497Z,15.47
2019-05-30T21:50:55.268Z,15.45
2019-05-30T21:53:21.994Z,15.65
2019-05-30T21:55:50.133Z,15.66
2019-05-30T21:58:16.908Z,15.83
2019-05-30T22:01:22.205Z,15.86
2019-05-30T22:03:51.006Z,15.73
2019-05-30T22:06:18.869Z,15.77
2019-05-30T22:08:45.641Z,15.72
2019-05-30T22:11:12.216Z,15.70
2019-05-30T22:13:38.914Z,15.64
2019-05-30T22:16:05.861Z,15.66
2019-05-30T22:18:32.473Z,15.63
2019-05-30T22:20:59.045Z,15.66
2019-05-30T22:23:25.735Z,15.66
2019-05-30T22:25:53.062Z,15.81
2019-05-30T22:28:19.733Z,15.81
2019-05-30T22:30:48.509Z,15.70
2019-05-30T22:33:15.541Z,15.71
2019-05-30T22:35:44.512Z,15.65
2019-05-30T22:38:11.440Z,15.83
2019-05-30T22:40:38.195Z,15.86
2019-05-30T22:43:04.797Z,15.88
2019-05-30T22:45:31.541Z,15.86
2019-05-30T22:47:58.154Z,15.69
2019-05-30T22:50:24.905Z,15.89
2019-05-30T22:52:51.511Z,15.83
2019-05-30T22:55:18.184Z,15.95
2019-05-30T22:57:44.845Z,15.95
2019-05-30T23:00:11.549Z,15.94
2019-05-30T23:02:38.326Z,15.90
2019-05-30T23:05:05.050Z,15.90
2019-05-30T23:07:32.705Z,15.91
2019-05-30T23:09:59.289Z,16.03
2019-05-30T23:12:25.870Z,15.87
2019-05-30T23:14:52.445Z,15.84
2019-05-30T23:17:19.343Z,15.93
2019-05-30T23:19:46.522Z,15.85
2019-05-30T23:22:13.518Z,15.78
2019-05-30T23:24:40.125Z,15.70
2019-05-30T23:27:08.320Z,15.74
2019-05-30T23:29:35.092Z,15.68
2019-05-30T23:32:02.075Z,15.68
2019-05-30T23:34:28.657Z,15.75
2019-05-30T23:36:58.740Z,15.78
2019-05-30T23:39:25.857Z,15.56
2019-05-30T23:41:53.008Z,15.47
2019-05-30T23:44:20.139Z,15.59
2019-05-30T23:46:46.989Z,15.60
2019-05-30T23:49:13.614Z,15.72
2019-05-30T23:51:41.258Z,15.60
2019-05-30T23:54:08.980Z,15.65
2019-05-30T23:56:35.581Z,15.66
2019-05-30T23:59:02.341Z,15.65
